Time;durP1;ratioP1;P1;durP2;ratioP2;P2;SDS_P1;SDS_P2;PMS_P1;PMS_P2;Temp;Humidity;BMP_temperature;BMP_pressure;BME280_temperature;BME280_humidity;BME280_pressure;Samples;Min_cycle;Max_cycle;Signal;HPM_P1;HPM_P2
2022/05/16 00:01:49;;;;;;;3.22;1.50;;;20.60;41.40;;;;;;5093038;28;20392;-74
2022/05/16 00:04:15;;;;;;;2.60;1.35;;;20.60;42.10;;;;;;5066620;28;20017;-73
2022/05/16 00:06:40;;;;;;;3.20;1.23;;;20.50;41.50;;;;;;5092794;28;20032;-74
2022/05/16 00:09:07;;;;;;;1.42;1.13;;;20.50;42.10;;;;;;5092875;28;20048;-75
2022/05/16 00:11:33;;;;;;;1.90;1.20;;;20.40;42.90;;;;;;5092806;28;20035;-74
2022/05/16 00:13:58;;;;;;;2.20;1.50;;;20.30;43.70;;;;;;5092922;28;20389;-77
2022/05/16 00:16:24;;;;;;;1.48;1.08;;;20.30;44.30;;;;;;5092864;28;20028;-74
2022/05/16 00:18:51;;;;;;;3.28;1.50;;;20.10;45.60;;;;;;5092988;28;20020;-73
2022/05/16 00:21:17;;;;;;;2.55;1.30;;;20.10;45.20;;;;;;5092858;28;20119;-73
2022/05/16 00:23:42;;;;;;;3.20;1.75;;;20.00;45.50;;;;;;5092702;28;20013;-74
2022/05/16 00:26:08;;;;;;;2.80;1.45;;;19.90;45.60;;;;;;5092916;28;20395;-73
2022/05/16 00:28:34;;;;;;;3.75;1.65;;;19.90;45.70;;;;;;5074581;28;20030;-73
2022/05/16 00:30:59;;;;;;;1.65;1.10;;;19.80;45.70;;;;;;5092763;28;20082;-74
2022/05/16 00:33:25;;;;;;;1.42;1.30;;;19.80;46.00;;;;;;5092727;28;20020;-73
2022/05/16 00:35:50;;;;;;;2.83;1.30;;;19.60;47.10;;;;;;5092526;28;20024;-74
2022/05/16 00:38:16;;;;;;;2.25;1.40;;;19.50;47.30;;;;;;5074496;28;20036;-74
2022/05/16 00:40:41;;;;;;;3.50;1.40;;;19.50;47.60;;;;;;5095539;28;20020;-73
2022/05/16 00:43:11;;;;;;;5.32;1.48;;;19.40;47.70;;;;;;5096601;28;20032;-73
2022/05/16 00:45:37;;;;;;;3.03;1.33;;;19.40;47.70;;;;;;5096395;28;20465;-73
2022/05/16 00:48:04;;;;;;;3.38;1.40;;;19.40;48.10;;;;;;5096123;28;20024;-73
2022/05/16 00:50:31;;;;;;;4.10;1.83;;;19.20;49.00;;;;;;5096319;28;20460;-74
2022/05/16 00:52:57;;;;;;;2.83;1.67;;;19.00;49.40;;;;;;5096307;28;20020;-75
2022/05/16 00:55:29;;;;;;;4.05;1.63;;;18.80;50.30;;;;;;5096481;28;20077;-73
2022/05/16 00:57:59;;;;;;;1.60;1.50;;;18.70;50.70;;;;;;5095800;28;20040;-74
2022/05/16 01:00:31;;;;;;;3.20;1.73;;;18.70;50.80;;;;;;5096239;28;20042;-75
2022/05/16 01:05:50;;;;;;;3.80;1.45;;;18.60;51.50;;;;;;5096576;28;20479;-73
2022/05/16 01:08:18;;;;;;;8.35;1.58;;;18.50;51.90;;;;;;5077833;28;20031;-75
2022/05/16 01:10:44;;;;;;;3.15;1.50;;;18.40;51.80;;;;;;5096367;28;20024;-74
2022/05/16 01:13:11;;;;;;;3.08;1.52;;;18.50;51.60;;;;;;5095891;28;20032;-73
2022/05/16 01:15:45;;;;;;;2.80;1.77;;;18.60;51.10;;;;;;5096012;28;20415;-73
2022/05/16 01:18:13;;;;;;;3.40;1.58;;;18.70;51.00;;;;;;5096025;28;20075;-73
2022/05/16 01:21:03;;;;;;;4.25;1.50;;;18.70;50.80;;;;;;5095653;28;20044;-74
2022/05/16 01:23:38;;;;;;;3.05;1.48;;;18.90;50.00;;;;;;5095893;28;20024;-74
2022/05/16 01:26:09;;;;;;;4.10;1.70;;;19.00;50.10;;;;;;5095915;28;20030;-73
2022/05/16 01:28:34;;;;;;;3.33;1.13;;;19.20;48.80;;;;;;5095784;28;20036;-73
2022/05/16 01:31:00;;;;;;;3.45;1.80;;;19.30;48.80;;;;;;5095629;28;20024;-73
2022/05/16 01:33:26;;;;;;;5.20;1.42;;;19.30;49.00;;;;;;5095654;28;20012;-73
2022/05/16 01:35:52;;;;;;;3.92;1.60;;;19.30;48.50;;;;;;5095603;28;20076;-74
2022/05/16 01:38:22;;;;;;;2.50;1.60;;;19.30;48.50;;;;;;5095514;28;20031;-73
2022/05/16 01:40:53;;;;;;;4.30;1.63;;;19.30;48.70;;;;;;5095490;28;20024;-73
2022/05/16 01:43:25;;;;;;;2.22;1.58;;;19.30;48.90;;;;;;5095413;28;20027;-74
2022/05/16 01:45:50;;;;;;;3.33;1.85;;;19.20;49.10;;;;;;5095247;28;20028;-74
2022/05/16 01:48:17;;;;;;;3.85;1.80;;;19.30;49.10;;;;;;5095546;28;20036;-72
2022/05/16 01:50:44;;;;;;;2.20;1.58;;;19.30;49.10;;;;;;5095272;28;20035;-73
2022/05/16 01:53:11;;;;;;;4.20;1.58;;;19.20;49.10;;;;;;5077003;28;20541;-73
2022/05/16 01:55:37;;;;;;;1.80;1.50;;;19.20;49.30;;;;;;5095763;28;20028;-75
2022/05/16 01:58:03;;;;;;;4.13;1.80;;;19.20;49.40;;;;;;5095448;28;20039;-72
2022/05/16 02:00:31;;;;;;;2.53;1.60;;;19.20;49.50;;;;;;5095067;28;20051;-73
2022/05/16 02:02:57;;;;;;;8.93;1.60;;;19.20;49.50;;;;;;5095051;28;20447;-74
2022/05/16 02:05:23;;;;;;;3.63;1.73;;;19.20;49.70;;;;;;5095007;28;20504;-73
2022/05/16 02:07:50;;;;;;;4.10;1.75;;;19.20;49.90;;;;;;5076787;28;20027;-73
2022/05/16 02:10:18;;;;;;;3.25;1.60;;;19.20;50.00;;;;;;5094477;28;20024;-73
2022/05/16 02:12:45;;;;;;;4.70;1.60;;;19.20;50.00;;;;;;5094782;28;20052;-73
2022/05/16 02:15:13;;;;;;;3.83;1.65;;;19.20;50.30;;;;;;5094582;28;20115;-73
2022/05/16 02:17:38;;;;;;;3.33;1.40;;;19.10;51.10;;;;;;5094313;28;20473;-75
2022/05/16 02:20:05;;;;;;;2.85;1.73;;;19.10;51.60;;;;;;5094402;28;20068;-73
2022/05/16 02:25:15;;;;;;;2.80;1.95;;;18.80;53.00;;;;;;5094562;28;20117;-74
2022/05/16 02:27:43;;;;;;;3.72;1.60;;;18.70;53.60;;;;;;5094315;28;20099;-74
2022/05/16 02:30:10;;;;;;;2.75;1.80;;;18.60;54.00;;;;;;5094476;28;20031;-74
2022/05/16 02:32:36;;;;;;;4.72;2.38;;;18.60;54.30;;;;;;5094197;28;20027;-74
2022/05/16 02:35:02;;;;;;;2.30;1.75;;;18.60;54.50;;;;;;5093933;28;20407;-74
2022/05/16 02:37:27;;;;;;;3.42;1.70;;;18.50;54.60;;;;;;5094173;28;20067;-73
2022/05/16 02:39:53;;;;;;;2.00;1.80;;;18.50;54.90;;;;;;5093871;28;20541;-74
2022/05/16 02:42:19;;;;;;;2.78;1.98;;;18.50;54.80;;;;;;5094290;28;20032;-75
2022/05/16 02:44:44;;;;;;;3.95;1.60;;;18.50;54.80;;;;;;5094111;28;20035;-75
2022/05/16 02:47:15;;;;;;;5.10;1.80;;;18.50;54.90;;;;;;5094012;28;20035;-73
2022/05/16 02:49:42;;;;;;;2.45;1.67;;;18.50;55.10;;;;;;5094049;28;20102;-75
2022/05/16 02:52:07;;;;;;;1.83;1.38;;;18.50;55.00;;;;;;5094063;28;20028;-74
2022/05/16 02:54:33;;;;;;;8.05;2.10;;;18.50;54.70;;;;;;5094082;28;20472;-73
2022/05/16 02:56:59;;;;;;;4.95;1.90;;;18.50;55.40;;;;;;5093712;28;20779;-75
2022/05/16 02:59:32;;;;;;;3.00;1.90;;;18.60;54.50;;;;;;5075727;28;20468;-74
2022/05/16 03:01:59;;;;;;;4.00;1.90;;;18.60;54.40;;;;;;5093486;28;20028;-73
2022/05/16 03:04:25;;;;;;;2.28;1.85;;;18.60;54.30;;;;;;5093810;28;20020;-75
2022/05/16 03:06:50;;;;;;;4.00;1.67;;;18.70;54.60;;;;;;5093304;28;20107;-73
2022/05/16 03:09:17;;;;;;;3.15;1.88;;;18.60;54.50;;;;;;5093774;28;20099;-74
2022/05/16 03:11:44;;;;;;;3.90;1.77;;;18.60;54.50;;;;;;5093358;28;20511;-73
2022/05/16 03:14:11;;;;;;;2.60;1.83;;;18.70;54.60;;;;;;5093559;28;20472;-73
2022/05/16 03:16:36;;;;;;;4.70;1.77;;;18.70;54.80;;;;;;5075432;28;20078;-73
2022/05/16 03:19:02;;;;;;;3.15;1.98;;;18.70;54.90;;;;;;5093607;28;20028;-73
2022/05/16 03:21:29;;;;;;;3.92;2.00;;;18.70;55.10;;;;;;5093218;28;20056;-74
2022/05/16 03:23:55;;;;;;;2.13;1.70;;;18.70;55.50;;;;;;5093580;28;20031;-73
2022/05/16 03:26:20;;;;;;;2.50;2.08;;;18.70;56.80;;;;;;5094652;28;20020;-75
2022/05/16 03:28:46;;;;;;;3.80;1.60;;;18.70;56.90;;;;;;5078256;28;20352;-74
2022/05/16 03:31:11;;;;;;;4.22;1.98;;;18.70;57.10;;;;;;5093861;28;20051;-73
2022/05/16 03:33:37;;;;;;;4.22;1.70;;;18.70;57.70;;;;;;5093472;28;20028;-75
2022/05/16 03:36:03;;;;;;;3.85;2.20;;;18.70;57.60;;;;;;5074926;28;20027;-74
2022/05/16 03:41:13;;;;;;;5.45;2.08;;;18.60;58.20;;;;;;5093571;28;20134;-74
2022/05/16 03:43:40;;;;;;;3.67;1.92;;;18.60;58.50;;;;;;5092990;28;20028;-73
2022/05/16 03:46:07;;;;;;;4.25;2.33;;;18.50;58.60;;;;;;5093304;28;20392;-74
2022/05/16 03:48:34;;;;;;;3.97;1.80;;;18.50;58.50;;;;;;5092779;28;20035;-76
2022/05/16 03:51:02;;;;;;;2.65;2.00;;;18.50;58.50;;;;;;5092619;28;20510;-75
2022/05/16 03:53:28;;;;;;;2.80;2.05;;;18.50;58.80;;;;;;5092876;28;20044;-76
2022/05/16 03:55:54;;;;;;;3.75;1.95;;;18.50;59.00;;;;;;5092982;28;20483;-74
2022/05/16 03:58:19;;;;;;;6.15;2.55;;;18.50;59.10;;;;;;5092613;28;20032;-73
2022/05/16 04:00:45;;;;;;;8.00;2.30;;;18.50;59.40;;;;;;5092909;28;20102;-74
2022/05/16 04:03:11;;;;;;;3.38;1.77;;;18.50;59.50;;;;;;5092907;28;20036;-74
2022/05/16 04:05:37;;;;;;;3.22;2.10;;;18.50;59.40;;;;;;5092742;28;20021;-74
2022/05/16 04:08:04;;;;;;;5.45;2.30;;;18.40;59.40;;;;;;5092887;28;20036;-79
2022/05/16 04:10:30;;;;;;;4.95;2.17;;;18.40;59.80;;;;;;5074968;28;20028;-78
2022/05/16 04:12:55;;;;;;;3.45;2.53;;;18.40;61.00;;;;;;5092593;28;20065;-79
2022/05/16 04:15:21;;;;;;;2.95;2.28;;;18.40;60.10;;;;;;5095240;28;20165;-79
2022/05/16 04:17:48;;;;;;;4.40;2.30;;;18.40;60.50;;;;;;5096896;28;20036;-79
2022/05/16 04:20:15;;;;;;;2.40;2.00;;;18.40;60.50;;;;;;5096333;28;20040;-73
2022/05/16 04:22:42;;;;;;;4.03;2.10;;;18.30;60.90;;;;;;5077298;28;20026;-73
2022/05/16 04:25:09;;;;;;;5.35;2.47;;;18.20;60.80;;;;;;5095398;28;20158;-73
2022/05/16 04:27:35;;;;;;;4.00;2.22;;;18.30;61.30;;;;;;5095362;28;20091;-73
2022/05/16 04:30:01;;;;;;;3.15;2.17;;;18.20;61.60;;;;;;5095169;28;20051;-72
2022/05/16 04:32:27;;;;;;;6.30;2.15;;;18.20;62.10;;;;;;5095277;28;20030;-73
2022/05/16 04:34:52;;;;;;;3.00;2.05;;;18.10;62.60;;;;;;5095455;28;20028;-73
2022/05/16 04:37:18;;;;;;;3.40;1.95;;;18.20;62.70;;;;;;5095052;28;20032;-73
2022/05/16 04:39:43;;;;;;;6.50;2.55;;;18.20;63.10;;;;;;5094932;28;20028;-73
2022/05/16 04:44:53;;;;;;;5.07;2.33;;;18.30;63.20;;;;;;5095193;28;20556;-74
2022/05/16 04:47:19;;;;;;;6.53;2.85;;;18.30;63.30;;;;;;5076913;28;20052;-74
2022/05/16 04:49:44;;;;;;;5.43;2.60;;;18.20;63.50;;;;;;5095030;28;20052;-74
2022/05/16 04:52:11;;;;;;;7.00;3.20;;;18.20;64.10;;;;;;5095067;28;20028;-73
2022/05/16 04:54:37;;;;;;;4.65;2.80;;;18.20;64.10;;;;;;5094760;28;20019;-73
2022/05/16 04:57:03;;;;;;;5.60;3.35;;;18.20;64.20;;;;;;5094632;28;20032;-73
2022/05/16 04:59:29;;;;;;;4.65;2.95;;;18.10;64.30;;;;;;5094425;28;20035;-73
2022/05/16 05:01:55;;;;;;;4.97;3.20;;;18.20;64.40;;;;;;5094845;28;20024;-73
2022/05/16 05:04:21;;;;;;;5.10;3.22;;;18.10;64.70;;;;;;5076645;28;20070;-73
2022/05/16 05:06:47;;;;;;;3.95;2.90;;;18.10;65.10;;;;;;5094488;28;20469;-74
2022/05/16 05:09:12;;;;;;;5.45;2.75;;;18.10;65.50;;;;;;5094498;28;20065;-73
2022/05/16 05:14:34;;;;;;;5.95;2.67;;;18.10;66.10;;;;;;5094741;28;20057;-74
2022/05/16 05:17:06;;;;;;;6.63;2.70;;;18.10;66.60;;;;;;5094279;28;20036;-77
2022/05/16 05:19:33;;;;;;;3.40;2.65;;;18.20;66.20;;;;;;5057059;28;1058220;-76
2022/05/16 05:21:59;;;;;;;5.13;2.53;;;18.20;66.30;;;;;;5095431;28;20043;-81
2022/05/16 05:24:25;;;;;;;8.13;2.58;;;18.30;66.60;;;;;;5095569;28;20031;-78
2022/05/16 05:26:51;;;;;;;6.35;2.92;;;18.40;66.40;;;;;;5076793;28;20384;-76
2022/05/16 05:29:17;;;;;;;4.40;2.63;;;18.40;66.40;;;;;;5095633;28;20077;-82
2022/05/16 05:31:43;;;;;;;4.65;2.95;;;18.30;66.00;;;;;;5095300;28;20020;-76
2022/05/16 05:34:11;;;;;;;5.00;2.22;;;18.30;65.70;;;;;;5095177;28;20031;-75
2022/05/16 05:36:40;;;;;;;5.10;2.90;;;18.30;65.50;;;;;;5095646;28;20444;-75
2022/05/16 05:39:06;;;;;;;4.43;2.80;;;18.30;65.90;;;;;;5095066;28;20095;-76
2022/05/16 05:41:31;;;;;;;3.28;2.55;;;18.20;66.10;;;;;;5095319;28;20444;-80
2022/05/16 05:43:57;;;;;;;4.25;2.85;;;18.30;65.60;;;;;;5095104;28;20464;-80
2022/05/16 05:46:23;;;;;;;3.92;2.83;;;18.40;65.20;;;;;;5094976;28;20048;-78
2022/05/16 05:48:49;;;;;;;5.78;2.70;;;18.40;64.80;;;;;;5095207;28;20055;-80
2022/05/16 05:51:16;;;;;;;3.80;2.60;;;18.40;64.70;;;;;;5094894;28;20028;-80
2022/05/16 05:53:43;;;;;;;4.88;2.47;;;18.50;64.90;;;;;;5076444;28;20031;-75
2022/05/16 05:56:11;;;;;;;4.60;2.70;;;18.50;64.50;;;;;;5094851;28;20020;-75
2022/05/16 05:58:37;;;;;;;4.72;2.63;;;18.60;64.00;;;;;;5094658;28;20027;-74
2022/05/16 06:01:04;;;;;;;5.57;2.63;;;18.60;62.90;;;;;;5094619;28;20020;-75
2022/05/16 06:03:30;;;;;;;4.55;2.70;;;18.70;62.70;;;;;;5094442;28;20024;-82
2022/05/16 06:05:56;;;;;;;7.22;2.80;;;18.70;63.00;;;;;;5094523;28;20016;-76
2022/05/16 06:08:22;;;;;;;4.78;2.30;;;18.80;62.20;;;;;;5094719;28;20028;-74
2022/05/16 06:10:49;;;;;;;3.55;2.22;;;18.90;62.00;;;;;;5094546;28;20077;-77
2022/05/16 06:13:16;;;;;;;3.42;2.30;;;18.90;61.90;;;;;;5076346;28;20462;-74
2022/05/16 06:15:42;;;;;;;5.05;2.72;;;19.00;61.70;;;;;;5094295;28;20054;-74
2022/05/16 06:18:08;;;;;;;5.07;2.97;;;19.10;61.30;;;;;;5076295;28;20063;-84
2022/05/16 06:20:33;;;;;;;6.72;2.30;;;19.20;60.40;;;;;;5094397;28;20128;-85
2022/05/16 06:22:59;;;;;;;5.85;2.13;;;19.40;59.90;;;;;;5077200;28;20032;-83
2022/05/16 06:25:34;;;;;;;5.55;2.50;;;19.50;59.70;;;;;;5095036;28;20093;-87
2022/05/16 06:28:08;;;;;;;11.27;3.53;;;19.70;59.40;;;;;;5094800;28;20031;-75
2022/05/16 06:30:37;;;;;;;12.77;3.60;;;20.00;59.90;;;;;;5094325;28;20305;-78
2022/05/16 06:33:04;;;;;;;3.92;2.03;;;20.30;59.60;;;;;;5094111;28;20095;-75
2022/05/16 06:35:30;;;;;;;7.53;2.25;;;20.60;57.10;;;;;;5094401;28;20027;-76
2022/05/16 06:37:56;;;;;;;6.90;2.80;;;20.80;57.00;;;;;;5093318;28;20392;-73
2022/05/16 06:40:22;;;;;;;10.32;2.65;;;21.00;56.40;;;;;;5094203;28;20016;-75
2022/05/16 06:42:48;;;;;;;7.05;2.80;;;21.00;55.20;;;;;;5093876;28;20051;-74
2022/05/16 06:45:15;;;;;;;4.53;1.98;;;21.10;55.50;;;;;;5093947;28;20028;-73
2022/05/16 06:47:41;;;;;;;4.35;2.38;;;21.10;54.80;;;;;;5094043;28;20490;-73
2022/05/16 06:50:07;;;;;;;5.38;2.10;;;21.10;55.30;;;;;;5094087;28;20024;-73
2022/05/16 06:52:32;;;;;;;7.22;2.65;;;21.10;53.90;;;;;;5094037;28;20536;-76
2022/05/16 06:55:00;;;;;;;4.38;2.00;;;21.30;54.70;;;;;;5094210;28;20130;-74
2022/05/16 06:57:27;;;;;;;9.30;2.88;;;21.40;54.70;;;;;;5094583;28;20028;-73
2022/05/16 06:59:52;;;;;;;4.70;2.42;;;21.60;54.90;;;;;;5094438;28;20020;-73
2022/05/16 07:02:18;;;;;;;6.97;2.70;;;21.80;54.30;;;;;;5094470;28;20392;-74
2022/05/16 07:04:43;;;;;;;4.60;2.28;;;21.90;53.40;;;;;;5093756;28;20028;-73
2022/05/16 07:07:09;;;;;;;4.20;2.58;;;22.00;53.00;;;;;;5075556;28;20495;-73
2022/05/16 07:09:39;;;;;;;4.85;2.25;;;22.10;52.80;;;;;;5093632;28;20026;-73
2022/05/16 07:12:06;;;;;;;4.43;2.35;;;22.10;51.50;;;;;;5093615;28;20073;-73
2022/05/16 07:14:33;;;;;;;4.97;2.15;;;22.10;52.30;;;;;;5093751;28;20089;-73
2022/05/16 07:16:59;;;;;;;4.88;2.60;;;22.20;52.20;;;;;;5093562;28;20365;-74
2022/05/16 07:19:27;;;;;;;6.15;2.25;;;22.40;52.20;;;;;;5075318;28;20028;-73
2022/05/16 07:21:53;;;;;;;3.58;2.15;;;22.40;51.50;;;;;;5093633;28;20024;-74
2022/05/16 07:24:18;;;;;;;4.82;2.40;;;22.40;51.30;;;;;;5093326;28;20050;-73
2022/05/16 07:29:28;;;;;;;3.17;2.30;;;22.40;51.30;;;;;;5093523;28;20031;-74
2022/05/16 07:31:53;;;;;;;3.63;2.40;;;22.40;51.50;;;;;;5093513;28;20020;-73
2022/05/16 07:34:19;;;;;;;2.58;2.00;;;22.60;51.40;;;;;;5093270;28;20028;-73
2022/05/16 07:36:45;;;;;;;3.08;2.20;;;22.80;50.40;;;;;;5093299;28;20028;-74
2022/05/16 07:39:10;;;;;;;11.55;2.67;;;22.90;50.20;;;;;;5093198;28;20020;-73
2022/05/16 07:41:36;;;;;;;4.00;2.65;;;23.10;50.50;;;;;;5093123;28;20028;-72
2022/05/16 07:44:02;;;;;;;9.20;2.60;;;23.10;49.30;;;;;;5093231;28;20020;-73
2022/05/16 07:46:27;;;;;;;7.70;2.75;;;23.10;50.20;;;;;;5093158;28;20491;-73
2022/05/16 07:48:53;;;;;;;4.53;2.80;;;23.00;50.10;;;;;;5093058;28;20032;-74
2022/05/16 07:51:18;;;;;;;7.82;2.63;;;22.90;50.20;;;;;;5074714;28;20053;-74
2022/05/16 07:53:44;;;;;;;5.25;2.75;;;22.90;50.70;;;;;;5092347;28;20024;-73
2022/05/16 07:56:10;;;;;;;7.43;2.88;;;22.90;50.70;;;;;;5092531;28;20031;-74
2022/05/16 07:58:35;;;;;;;6.15;2.92;;;23.00;50.40;;;;;;5092675;28;20419;-74
2022/05/16 08:01:01;;;;;;;9.07;3.35;;;23.10;50.20;;;;;;5092928;28;20024;-73
2022/05/16 08:03:30;;;;;;;4.65;2.78;;;23.30;49.80;;;;;;5092683;28;20020;-74
2022/05/16 08:05:56;;;;;;;3.47;2.60;;;23.40;50.00;;;;;;5074585;28;20055;-77
2022/05/16 08:11:09;;;;;;;4.13;2.28;;;23.50;50.00;;;;;;5093226;28;20034;-78
2022/05/16 08:13:35;;;;;;;6.90;2.40;;;23.60;50.00;;;;;;5074926;28;20384;-77
2022/05/16 08:16:00;;;;;;;5.35;2.70;;;23.70;49.20;;;;;;5092355;28;20024;-77
2022/05/16 08:18:26;;;;;;;5.38;2.95;;;23.90;48.60;;;;;;5092238;28;20099;-76
2022/05/16 08:20:52;;;;;;;3.17;2.75;;;24.10;47.90;;;;;;5092553;28;20040;-77
2022/05/16 08:23:21;;;;;;;8.15;2.92;;;24.10;47.50;;;;;;5092233;28;20472;-79
2022/05/16 08:25:48;;;;;;;6.22;2.95;;;24.00;47.40;;;;;;5092692;28;20024;-78
2022/05/16 08:28:15;;;;;;;6.03;2.90;;;23.80;47.30;;;;;;5092562;28;20067;-78
2022/05/16 08:30:41;;;;;;;6.82;2.78;;;23.80;48.20;;;;;;5093077;28;20021;-82
2022/05/16 08:33:06;;;;;;;3.95;2.80;;;23.80;48.00;;;;;;5092826;28;20407;-83
2022/05/16 08:35:32;;;;;;;12.65;4.85;;;23.90;47.90;;;;;;5074458;28;20111;-83
2022/05/16 08:40:53;;;;;;;5.55;2.83;;;23.80;48.70;;;;;;5092823;28;20031;-81
2022/05/16 08:43:36;;;;;;;6.80;3.00;;;23.90;48.30;;;;;;5092280;28;20027;-79
2022/05/16 08:46:15;;;;;;;5.78;2.45;;;23.90;47.90;;;;;;5074405;28;20111;-82
2022/05/16 08:48:45;;;;;;;7.50;2.80;;;24.00;48.30;;;;;;5092345;28;20047;-83
2022/05/16 08:51:23;;;;;;;7.03;3.15;;;23.90;48.30;;;;;;5092382;28;20012;-77
2022/05/16 08:53:55;;;;;;;5.38;3.33;;;23.80;48.00;;;;;;5092486;28;20032;-77
2022/05/16 08:56:26;;;;;;;5.53;3.05;;;23.60;48.50;;;;;;5092373;28;20024;-78
2022/05/16 08:58:57;;;;;;;5.97;3.03;;;23.60;47.70;;;;;;5092342;28;20368;-77
2022/05/16 09:01:26;;;;;;;7.00;3.35;;;23.40;49.00;;;;;;5076411;28;20368;-77
2022/05/16 09:03:58;;;;;;;6.70;3.40;;;23.40;47.80;;;;;;5095915;28;20023;-77
2022/05/16 09:06:47;;;;;;;5.10;3.22;;;23.40;48.80;;;;;;5096075;28;20034;-77
2022/05/16 09:09:14;;;;;;;6.57;3.00;;;23.50;48.60;;;;;;5077636;28;20028;-77
2022/05/16 09:12:02;;;;;;;5.88;3.08;;;23.80;47.20;;;;;;5077501;28;20369;-78
2022/05/16 09:14:54;;;;;;;6.07;3.33;;;24.00;47.40;;;;;;5095777;28;20510;-77
2022/05/16 09:17:26;;;;;;;6.50;3.40;;;24.20;47.70;;;;;;5091640;28;20122;-78
2022/05/16 09:20:04;;;;;;;6.55;3.38;;;24.30;48.50;;;;;;5095541;28;20032;-77
2022/05/16 09:22:50;;;;;;;6.10;3.67;;;24.10;48.10;;;;;;5077053;28;20028;-77
2022/05/16 09:25:17;;;;;;;;;;;23.80;46.70;;;;;;5095357;28;20047;-76
2022/05/16 09:30:33;;;;;;;9.55;3.70;;;23.50;45.80;;;;;;5095083;28;20040;-76
2022/05/16 09:33:06;;;;;;;8.00;3.75;;;23.30;46.90;;;;;;5077039;28;20028;-77
2022/05/16 09:36:00;;;;;;;10.82;3.72;;;23.20;47.30;;;;;;5094992;28;20119;-76
2022/05/16 09:38:26;;;;;;;9.15;3.90;;;23.10;48.90;;;;;;5050040;28;20463;-81
2022/05/16 09:41:01;;;;;;;13.45;3.90;;;22.90;49.40;;;;;;5095956;28;20154;-74
2022/05/16 09:43:32;;;;;;;15.15;4.45;;;22.30;52.60;;;;;;5088010;28;20026;-75
2022/05/16 09:46:48;;;;;;;7.30;4.10;;;22.10;55.60;;;;;;5085634;28;20024;-78
2022/05/16 09:49:21;;;;;;;11.32;5.15;;;21.60;58.80;;;;;;5092393;28;20358;-85
2022/05/16 09:51:54;;;;;;;15.43;4.75;;;21.20;63.10;;;;;;5097414;28;20110;-82
2022/05/16 09:54:37;;;;;;;18.58;5.05;;;20.70;66.70;;;;;;5115881;28;20415;-75
2022/05/16 09:57:06;;;;;;;16.70;5.18;;;20.10;69.80;;;;;;5115081;28;20475;-78
2022/05/16 09:59:47;;;;;;;14.25;5.25;;;19.70;72.50;;;;;;5115148;28;20034;-75
2022/05/16 10:02:23;;;;;;;16.30;5.65;;;19.20;74.70;;;;;;5115713;28;20023;-83
2022/05/16 10:04:55;;;;;;;15.52;5.30;;;18.90;76.20;;;;;;5115239;28;20016;-76
2022/05/16 10:07:43;;;;;;;10.65;5.30;;;18.70;77.20;;;;;;5115899;28;20024;-75
2022/05/16 10:10:22;;;;;;;9.80;4.95;;;18.70;78.30;;;;;;5120786;28;20020;-75
2022/05/16 10:12:49;;;;;;;11.35;4.85;;;18.60;77.70;;;;;;5120335;28;20109;-74
2022/05/16 10:15:17;;;;;;;8.80;4.43;;;18.60;77.80;;;;;;5120013;28;20051;-83
2022/05/16 10:17:44;;;;;;;10.18;4.85;;;18.70;75.50;;;;;;5115811;28;20374;-74
2022/05/16 10:20:16;;;;;;;14.65;4.85;;;18.90;75.40;;;;;;5114594;28;20101;-84
2022/05/16 10:22:43;;;;;;;10.05;4.22;;;19.00;75.60;;;;;;5115404;28;20463;-83
2022/05/16 10:25:18;;;;;;;9.35;4.68;;;19.20;75.50;;;;;;5115382;28;20488;-78
2022/05/16 10:27:46;;;;;;;8.00;4.40;;;19.30;74.50;;;;;;5096798;28;20032;-74
2022/05/16 10:30:22;;;;;;;13.00;4.97;;;19.30;75.10;;;;;;5114834;28;20022;-76
2022/05/16 10:36:02;;;;;;;10.57;5.25;;;19.40;75.70;;;;;;5115485;28;20119;-74
2022/05/16 10:38:46;;;;;;;10.98;4.50;;;19.50;73.60;;;;;;5114630;28;20035;-75
2022/05/16 10:41:19;;;;;;;8.48;4.15;;;19.40;74.70;;;;;;5114876;28;20020;-76
2022/05/16 10:43:49;;;;;;;11.10;4.53;;;19.30;75.70;;;;;;5095685;28;20031;-75
2022/05/16 10:46:22;;;;;;;9.55;3.88;;;19.10;75.90;;;;;;5113767;28;20027;-74
2022/05/16 10:48:52;;;;;;;7.45;4.10;;;19.00;72.30;;;;;;5113702;28;20028;-75
2022/05/16 10:51:36;;;;;;;10.05;4.18;;;18.90;72.00;;;;;;5113470;28;20039;-75
2022/05/16 10:54:20;;;;;;;7.90;3.90;;;18.80;72.10;;;;;;5113290;28;20039;-75
2022/05/16 10:57:02;;;;;;;9.02;3.30;;;18.80;72.60;;;;;;5095016;28;20035;-75
2022/05/16 10:59:37;;;;;;;6.57;3.60;;;18.90;72.00;;;;;;5113547;28;20354;-74
2022/05/16 11:02:20;;;;;;;8.98;4.10;;;18.90;72.20;;;;;;5113103;28;20034;-75
2022/05/16 11:05:06;;;;;;;5.30;3.33;;;18.90;72.00;;;;;;5114058;28;20072;-73
2022/05/16 11:07:58;;;;;;;14.57;3.72;;;18.80;70.80;;;;;;5113952;28;20055;-80
2022/05/16 11:10:55;;;;;;;8.35;3.47;;;18.50;74.20;;;;;;5096623;28;20024;-73
2022/05/16 11:14:09;;;;;;;15.73;4.07;;;18.40;75.50;;;;;;5115814;28;20118;-74
2022/05/16 11:16:38;;;;;;;10.30;3.70;;;18.30;76.50;;;;;;5027090;28;20065;-75
2022/05/16 11:19:12;;;;;;;13.73;3.90;;;18.30;79.10;;;;;;5115400;28;20238;-74
2022/05/16 11:22:13;;;;;;;11.02;4.40;;;18.20;79.80;;;;;;5115981;28;20035;-78
2022/05/16 11:24:50;;;;;;;11.68;3.70;;;18.10;81.40;;;;;;5111950;28;20057;-78
2022/05/16 11:27:22;;;;;;;11.60;4.05;;;18.20;80.50;;;;;;5114348;28;20026;-74
2022/05/16 11:30:09;;;;;;;8.68;4.25;;;18.50;80.20;;;;;;5113886;28;20047;-75
2022/05/16 11:32:59;;;;;;;6.32;3.55;;;18.80;79.50;;;;;;5114039;28;20100;-75
2022/05/16 11:35:36;;;;;;;9.23;3.22;;;19.00;78.90;;;;;;5113554;28;20448;-76
2022/05/16 11:38:26;;;;;;;7.20;3.50;;;19.20;78.00;;;;;;5115096;28;20425;-74
2022/05/16 11:41:09;;;;;;;6.40;3.45;;;19.40;76.90;;;;;;5114396;28;20028;-75
2022/05/16 11:43:41;;;;;;;6.88;3.38;;;19.70;75.60;;;;;;5114238;28;20099;-75
2022/05/16 11:46:31;;;;;;;7.63;3.63;;;19.90;74.40;;;;;;5113599;28;20464;-75
2022/05/16 11:49:15;;;;;;;11.40;3.58;;;20.20;73.60;;;;;;5113946;28;20069;-74
2022/05/16 11:51:48;;;;;;;8.55;3.90;;;20.40;72.30;;;;;;5113326;28;20028;-75
2022/05/16 11:54:17;;;;;;;9.60;3.55;;;20.70;70.20;;;;;;5113201;28;20027;-76
2022/05/16 12:02:41;;;;;;;6.20;2.80;;;21.80;68.10;;;;;;5114417;28;20030;-78
2022/05/16 12:05:27;;;;;;;8.40;3.38;;;22.20;63.20;;;;;;5118262;28;20113;-76
2022/05/16 12:08:38;;;;;;;9.40;4.10;;;22.40;66.30;;;;;;5096845;28;20044;-75
2022/05/16 12:11:11;;;;;;;6.97;3.45;;;22.70;68.20;;;;;;5118881;28;20030;-75
2022/05/16 12:14:09;;;;;;;7.88;3.75;;;23.00;65.70;;;;;;5113142;28;20020;-76
2022/05/16 12:16:50;;;;;;;6.82;2.78;;;22.60;62.80;;;;;;5112933;28;20495;-78
2022/05/16 12:19:37;;;;;;;10.20;3.15;;;22.60;63.20;;;;;;5112734;28;20494;-83
2022/05/16 12:22:12;;;;;;;8.40;3.17;;;22.80;63.00;;;;;;5092532;28;20036;-76
2022/05/16 12:24:53;;;;;;;9.27;3.30;;;23.00;63.40;;;;;;5093194;28;20031;-81
2022/05/16 12:27:35;;;;;;;6.05;2.92;;;23.20;60.30;;;;;;5092322;28;20020;-75
2022/05/16 12:30:23;;;;;;;4.75;2.65;;;23.50;61.50;;;;;;5092556;28;20074;-75
2022/05/16 12:32:53;;;;;;;9.02;2.60;;;23.70;57.80;;;;;;5092482;28;20028;-75
2022/05/16 12:35:28;;;;;;;5.22;2.63;;;23.90;58.00;;;;;;5093291;28;20446;-75
2022/05/16 12:37:54;;;;;;;7.30;2.80;;;24.20;56.10;;;;;;5096563;28;20036;-75
2022/05/16 12:40:40;;;;;;;5.38;2.83;;;23.70;58.50;;;;;;5096410;28;20032;-75
2022/05/16 12:43:26;;;;;;;8.35;2.78;;;23.80;59.90;;;;;;5096547;28;20035;-77
2022/05/16 12:45:58;;;;;;;6.28;2.80;;;24.00;57.30;;;;;;5078303;28;20081;-74
2022/05/16 12:48:48;;;;;;;7.00;2.58;;;24.10;59.10;;;;;;5096439;28;20055;-76
2022/05/16 12:51:36;;;;;;;6.50;2.42;;;24.40;54.80;;;;;;5096123;28;20012;-75
2022/05/16 12:54:21;;;;;;;8.77;3.08;;;24.20;54.70;;;;;;5077832;28;20023;-74
2022/05/16 12:56:52;;;;;;;5.30;2.30;;;23.30;58.00;;;;;;5095801;28;20047;-75
2022/05/16 12:59:43;;;;;;;7.30;2.75;;;23.30;56.90;;;;;;5077960;28;20028;-77
2022/05/16 13:02:39;;;;;;;7.75;3.03;;;23.70;56.60;;;;;;5095530;28;20476;-75
2022/05/16 13:05:22;;;;;;;;;;;24.10;55.50;;;;;;5096787;28;20028;-79
2022/05/16 13:08:12;;;;;;;5.47;2.40;;;24.50;52.90;;;;;;5096319;28;19904;-75
2022/05/16 13:10:42;;;;;;;7.50;2.08;;;24.60;52.30;;;;;;5096177;28;20480;-78
2022/05/16 13:13:41;;;;;;;7.50;2.75;;;24.80;51.60;;;;;;5095777;28;20029;-78
2022/05/16 13:16:20;;;;;;;5.40;2.15;;;24.80;53.90;;;;;;5095758;28;20028;-77
2022/05/16 13:18:53;;;;;;;11.15;2.67;;;24.20;54.30;;;;;;5077544;28;20082;-75
2022/05/16 13:21:21;;;;;;;3.75;2.60;;;23.90;53.80;;;;;;5112479;28;20047;-77
2022/05/16 13:23:49;;;;;;;6.47;2.33;;;24.00;54.10;;;;;;5097944;28;20027;-74
2022/05/16 13:31:48;;;;;;;3.50;2.13;;;24.60;52.60;;;;;;5116004;28;20080;-75
2022/05/16 13:34:30;;;;;;;4.28;2.38;;;24.40;53.50;;;;;;5115931;28;20495;-74
2022/05/16 13:36:56;;;;;;;7.45;2.42;;;24.10;53.30;;;;;;5115922;28;20039;-76
2022/05/16 13:39:22;;;;;;;5.07;2.42;;;23.90;53.90;;;;;;5116486;28;20376;-78
2022/05/16 13:41:59;;;;;;;7.00;2.65;;;23.70;55.00;;;;;;5117057;28;20024;-79
2022/05/16 13:44:32;;;;;;;8.55;2.35;;;24.00;54.60;;;;;;5116373;28;20076;-78